sensor_id;sensor_type;location;lat;lon;timestamp;P1;durP1;ratioP1;P2;durP2;ratioP2
13122;SDS011;6627;50.920;12.050;2023-05-23T00:00:02;9.80;;;8.47;;
13122;SDS011;6627;50.920;12.050;2023-05-23T00:02:31;9.70;;;8.80;;
13122;SDS011;6627;50.920;12.050;2023-05-23T00:04:59;9.97;;;8.97;;
13122;SDS011;6627;50.920;12.050;2023-05-23T00:07:28;11.67;;;8.83;;
13122;SDS011;6627;50.920;12.050;2023-05-23T00:09:56;9.37;;;8.47;;
13122;SDS011;6627;50.920;12.050;2023-05-23T00:12:25;9.70;;;8.70;;
13122;SDS011;6627;50.920;12.050;2023-05-23T00:14:53;10.83;;;9.03;;
13122;SDS011;6627;50.920;12.050;2023-05-23T00:17:21;10.13;;;9.13;;
13122;SDS011;6627;50.920;12.050;2023-05-23T00:19:49;13.03;;;8.87;;
13122;SDS011;6627;50.920;12.050;2023-05-23T00:22:17;15.10;;;9.17;;
13122;SDS011;6627;50.920;12.050;2023-05-23T00:24:44;11.40;;;9.47;;
13122;SDS011;6627;50.920;12.050;2023-05-23T00:27:11;10.50;;;9.40;;
13122;SDS011;6627;50.920;12.050;2023-05-23T00:29:40;14.87;;;10.10;;
13122;SDS011;6627;50.920;12.050;2023-05-23T00:32:07;15.00;;;9.30;;
13122;SDS011;6627;50.920;12.050;2023-05-23T00:34:34;10.13;;;9.13;;
13122;SDS011;6627;50.920;12.050;2023-05-23T00:37:03;11.27;;;9.27;;
13122;SDS011;6627;50.920;12.050;2023-05-23T00:39:30;10.30;;;9.27;;
13122;SDS011;6627;50.920;12.050;2023-05-23T00:41:58;14.47;;;9.50;;
13122;SDS011;6627;50.920;12.050;2023-05-23T00:44:30;10.73;;;9.40;;
13122;SDS011;6627;50.920;12.050;2023-05-23T00:46:59;12.40;;;9.43;;
13122;SDS011;6627;50.920;12.050;2023-05-23T00:49:26;11.43;;;10.33;;
13122;SDS011;6627;50.920;12.050;2023-05-23T00:51:54;14.40;;;10.50;;
13122;SDS011;6627;50.920;12.050;2023-05-23T00:54:22;12.77;;;10.87;;
13122;SDS011;6627;50.920;12.050;2023-05-23T00:56:53;10.67;;;9.67;;
13122;SDS011;6627;50.920;12.050;2023-05-23T00:59:20;11.80;;;10.33;;
13122;SDS011;6627;50.920;12.050;2023-05-23T01:01:51;12.27;;;10.80;;
13122;SDS011;6627;50.920;12.050;2023-05-23T01:04:22;12.60;;;11.03;;
13122;SDS011;6627;50.920;12.050;2023-05-23T01:06:51;12.37;;;11.00;;
13122;SDS011;6627;50.920;12.050;2023-05-23T01:09:19;11.70;;;10.60;;
13122;SDS011;6627;50.920;12.050;2023-05-23T01:11:53;12.57;;;11.40;;
13122;SDS011;6627;50.920;12.050;2023-05-23T01:14:37;12.37;;;11.17;;
13122;SDS011;6627;50.920;12.050;2023-05-23T01:17:14;12.13;;;11.03;;
13122;SDS011;6627;50.920;12.050;2023-05-23T01:19:58;12.23;;;11.10;;
13122;SDS011;6627;50.920;12.050;2023-05-23T01:22:37;11.87;;;10.67;;
13122;SDS011;6627;50.920;12.050;2023-05-23T01:25:27;11.63;;;10.53;;
13122;SDS011;6627;50.920;12.050;2023-05-23T01:28:14;11.70;;;10.63;;
13122;SDS011;6627;50.920;12.050;2023-05-23T01:30:45;13.10;;;11.57;;
13122;SDS011;6627;50.920;12.050;2023-05-23T01:33:21;11.90;;;10.07;;
13122;SDS011;6627;50.920;12.050;2023-05-23T01:35:51;12.30;;;11.10;;
13122;SDS011;6627;50.920;12.050;2023-05-23T01:38:20;11.83;;;10.63;;
13122;SDS011;6627;50.920;12.050;2023-05-23T01:40:47;11.83;;;10.60;;
13122;SDS011;6627;50.920;12.050;2023-05-23T01:43:16;11.60;;;10.60;;
13122;SDS011;6627;50.920;12.050;2023-05-23T01:45:43;11.33;;;9.83;;
13122;SDS011;6627;50.920;12.050;2023-05-23T01:48:11;14.17;;;10.37;;
13122;SDS011;6627;50.920;12.050;2023-05-23T01:50:41;10.53;;;9.53;;
13122;SDS011;6627;50.920;12.050;2023-05-23T01:53:10;11.80;;;10.60;;
13122;SDS011;6627;50.920;12.050;2023-05-23T01:55:39;12.20;;;10.93;;
13122;SDS011;6627;50.920;12.050;2023-05-23T01:58:07;10.90;;;9.90;;
13122;SDS011;6627;50.920;12.050;2023-05-23T02:00:36;11.33;;;10.33;;
13122;SDS011;6627;50.920;12.050;2023-05-23T02:03:03;11.77;;;10.67;;
13122;SDS011;6627;50.920;12.050;2023-05-23T02:05:31;11.33;;;10.10;;
13122;SDS011;6627;50.920;12.050;2023-05-23T02:07:58;11.53;;;10.53;;
13122;SDS011;6627;50.920;12.050;2023-05-23T02:10:25;11.83;;;10.67;;
13122;SDS011;6627;50.920;12.050;2023-05-23T02:12:53;11.80;;;10.60;;
13122;SDS011;6627;50.920;12.050;2023-05-23T02:15:20;11.80;;;10.70;;
13122;SDS011;6627;50.920;12.050;2023-05-23T02:17:48;12.30;;;11.20;;
13122;SDS011;6627;50.920;12.050;2023-05-23T02:20:16;13.73;;;12.33;;
13122;SDS011;6627;50.920;12.050;2023-05-23T02:22:43;13.23;;;12.03;;
13122;SDS011;6627;50.920;12.050;2023-05-23T02:25:10;13.87;;;12.67;;
13122;SDS011;6627;50.920;12.050;2023-05-23T02:27:37;15.53;;;13.20;;
13122;SDS011;6627;50.920;12.050;2023-05-23T02:30:05;14.03;;;12.57;;
13122;SDS011;6627;50.920;12.050;2023-05-23T02:32:34;16.70;;;12.73;;
13122;SDS011;6627;50.920;12.050;2023-05-23T02:35:03;22.03;;;12.80;;
13122;SDS011;6627;50.920;12.050;2023-05-23T02:37:31;13.83;;;12.33;;
13122;SDS011;6627;50.920;12.050;2023-05-23T02:39:58;14.70;;;13.30;;
13122;SDS011;6627;50.920;12.050;2023-05-23T02:42:26;13.90;;;12.50;;
13122;SDS011;6627;50.920;12.050;2023-05-23T02:44:53;14.77;;;13.27;;
13122;SDS011;6627;50.920;12.050;2023-05-23T02:47:20;15.20;;;13.63;;
13122;SDS011;6627;50.920;12.050;2023-05-23T02:49:47;16.03;;;14.10;;
13122;SDS011;6627;50.920;12.050;2023-05-23T02:52:15;15.87;;;14.33;;
13122;SDS011;6627;50.920;12.050;2023-05-23T02:54:43;18.23;;;15.23;;
13122;SDS011;6627;50.920;12.050;2023-05-23T02:57:10;16.63;;;15.03;;
13122;SDS011;6627;50.920;12.050;2023-05-23T02:59:37;16.43;;;14.90;;
13122;SDS011;6627;50.920;12.050;2023-05-23T03:02:04;20.53;;;16.13;;
13122;SDS011;6627;50.920;12.050;2023-05-23T03:04:31;17.57;;;15.53;;
13122;SDS011;6627;50.920;12.050;2023-05-23T03:06:59;19.43;;;16.40;;
13122;SDS011;6627;50.920;12.050;2023-05-23T03:09:29;17.97;;;16.10;;
13122;SDS011;6627;50.920;12.050;2023-05-23T03:11:56;17.97;;;15.07;;
13122;SDS011;6627;50.920;12.050;2023-05-23T03:14:23;18.33;;;16.43;;
13122;SDS011;6627;50.920;12.050;2023-05-23T03:16:50;21.63;;;16.47;;
13122;SDS011;6627;50.920;12.050;2023-05-23T03:19:17;18.93;;;16.97;;
13122;SDS011;6627;50.920;12.050;2023-05-23T03:21:45;20.70;;;17.00;;
13122;SDS011;6627;50.920;12.050;2023-05-23T03:24:12;19.43;;;16.37;;
13122;SDS011;6627;50.920;12.050;2023-05-23T03:26:41;18.73;;;16.73;;
13122;SDS011;6627;50.920;12.050;2023-05-23T03:29:09;17.83;;;15.37;;
13122;SDS011;6627;50.920;12.050;2023-05-23T03:31:36;17.47;;;15.83;;
13122;SDS011;6627;50.920;12.050;2023-05-23T03:34:03;16.07;;;14.50;;
13122;SDS011;6627;50.920;12.050;2023-05-23T03:36:30;15.70;;;14.13;;
13122;SDS011;6627;50.920;12.050;2023-05-23T03:38:58;14.73;;;13.33;;
13122;SDS011;6627;50.920;12.050;2023-05-23T03:41:25;14.97;;;13.37;;
13122;SDS011;6627;50.920;12.050;2023-05-23T03:43:54;16.30;;;13.87;;
13122;SDS011;6627;50.920;12.050;2023-05-23T03:46:21;14.97;;;13.40;;
13122;SDS011;6627;50.920;12.050;2023-05-23T03:48:48;17.37;;;13.60;;
13122;SDS011;6627;50.920;12.050;2023-05-23T03:51:16;14.60;;;13.17;;
13122;SDS011;6627;50.920;12.050;2023-05-23T03:53:43;13.83;;;12.23;;
13122;SDS011;6627;50.920;12.050;2023-05-23T03:56:10;13.27;;;11.70;;
13122;SDS011;6627;50.920;12.050;2023-05-23T03:58:37;13.10;;;11.90;;
13122;SDS011;6627;50.920;12.050;2023-05-23T04:01:06;12.03;;;10.93;;
13122;SDS011;6627;50.920;12.050;2023-05-23T04:03:33;12.93;;;11.63;;
13122;SDS011;6627;50.920;12.050;2023-05-23T04:06:01;12.43;;;11.33;;
13122;SDS011;6627;50.920;12.050;2023-05-23T04:08:28;15.03;;;11.47;;
13122;SDS011;6627;50.920;12.050;2023-05-23T04:10:58;12.83;;;11.47;;
13122;SDS011;6627;50.920;12.050;2023-05-23T04:13:26;12.17;;;10.50;;
13122;SDS011;6627;50.920;12.050;2023-05-23T04:15:53;12.47;;;11.27;;
13122;SDS011;6627;50.920;12.050;2023-05-23T04:18:22;12.03;;;10.83;;
13122;SDS011;6627;50.920;12.050;2023-05-23T04:20:49;14.90;;;10.57;;
13122;SDS011;6627;50.920;12.050;2023-05-23T04:23:17;11.73;;;10.40;;
13122;SDS011;6627;50.920;12.050;2023-05-23T04:25:44;12.07;;;10.53;;
13122;SDS011;6627;50.920;12.050;2023-05-23T04:28:12;11.57;;;10.57;;
13122;SDS011;6627;50.920;12.050;2023-05-23T04:30:42;11.60;;;10.40;;
13122;SDS011;6627;50.920;12.050;2023-05-23T04:33:09;11.83;;;10.70;;
13122;SDS011;6627;50.920;12.050;2023-05-23T04:35:39;12.07;;;10.90;;
13122;SDS011;6627;50.920;12.050;2023-05-23T04:38:06;16.83;;;10.70;;
13122;SDS011;6627;50.920;12.050;2023-05-23T04:40:33;12.10;;;10.90;;
13122;SDS011;6627;50.920;12.050;2023-05-23T04:43:00;12.77;;;10.57;;
13122;SDS011;6627;50.920;12.050;2023-05-23T04:45:28;11.43;;;9.97;;
13122;SDS011;6627;50.920;12.050;2023-05-23T04:47:56;12.07;;;10.77;;
13122;SDS011;6627;50.920;12.050;2023-05-23T04:50:23;12.70;;;10.80;;
13122;SDS011;6627;50.920;12.050;2023-05-23T04:52:51;12.17;;;10.93;;
13122;SDS011;6627;50.920;12.050;2023-05-23T04:55:19;12.03;;;10.73;;
13122;SDS011;6627;50.920;12.050;2023-05-23T04:57:46;11.97;;;10.87;;
13122;SDS011;6627;50.920;12.050;2023-05-23T05:00:14;12.43;;;11.23;;
13122;SDS011;6627;50.920;12.050;2023-05-23T05:02:42;12.83;;;11.37;;
13122;SDS011;6627;50.920;12.050;2023-05-23T05:05:09;11.60;;;10.40;;
13122;SDS011;6627;50.920;12.050;2023-05-23T05:07:37;12.83;;;11.63;;
13122;SDS011;6627;50.920;12.050;2023-05-23T05:10:06;11.53;;;10.30;;
13122;SDS011;6627;50.920;12.050;2023-05-23T05:12:41;11.73;;;10.60;;
13122;SDS011;6627;50.920;12.050;2023-05-23T05:15:09;12.23;;;10.90;;
13122;SDS011;6627;50.920;12.050;2023-05-23T05:17:38;13.10;;;10.70;;
13122;SDS011;6627;50.920;12.050;2023-05-23T05:20:06;12.90;;;11.67;;
13122;SDS011;6627;50.920;12.050;2023-05-23T05:22:35;12.33;;;10.83;;
13122;SDS011;6627;50.920;12.050;2023-05-23T05:25:06;12.20;;;11.10;;
13122;SDS011;6627;50.920;12.050;2023-05-23T05:27:35;13.67;;;11.57;;
13122;SDS011;6627;50.920;12.050;2023-05-23T05:30:03;12.50;;;11.00;;
13122;SDS011;6627;50.920;12.050;2023-05-23T05:32:33;12.70;;;11.40;;
13122;SDS011;6627;50.920;12.050;2023-05-23T05:35:00;14.33;;;12.10;;
13122;SDS011;6627;50.920;12.050;2023-05-23T05:37:28;13.40;;;11.33;;
13122;SDS011;6627;50.920;12.050;2023-05-23T05:39:55;14.10;;;12.20;;
13122;SDS011;6627;50.920;12.050;2023-05-23T05:42:24;15.20;;;12.77;;
13122;SDS011;6627;50.920;12.050;2023-05-23T05:44:52;14.23;;;12.83;;
13122;SDS011;6627;50.920;12.050;2023-05-23T05:47:19;15.87;;;12.57;;
13122;SDS011;6627;50.920;12.050;2023-05-23T05:49:46;15.00;;;12.93;;
13122;SDS011;6627;50.920;12.050;2023-05-23T05:52:13;12.90;;;11.70;;
13122;SDS011;6627;50.920;12.050;2023-05-23T05:54:41;13.63;;;12.30;;
13122;SDS011;6627;50.920;12.050;2023-05-23T05:57:08;15.43;;;13.40;;
13122;SDS011;6627;50.920;12.050;2023-05-23T05:59:36;15.80;;;13.17;;
13122;SDS011;6627;50.920;12.050;2023-05-23T06:02:05;14.67;;;13.27;;
13122;SDS011;6627;50.920;12.050;2023-05-23T06:04:32;16.20;;;13.30;;
13122;SDS011;6627;50.920;12.050;2023-05-23T06:07:00;15.93;;;12.87;;
13122;SDS011;6627;50.920;12.050;2023-05-23T06:09:27;13.53;;;12.33;;
13122;SDS011;6627;50.920;12.050;2023-05-23T06:11:54;15.17;;;12.70;;
13122;SDS011;6627;50.920;12.050;2023-05-23T06:14:21;16.80;;;13.23;;
13122;SDS011;6627;50.920;12.050;2023-05-23T06:16:50;15.17;;;13.60;;
13122;SDS011;6627;50.920;12.050;2023-05-23T06:19:17;15.47;;;13.97;;
13122;SDS011;6627;50.920;12.050;2023-05-23T06:21:44;16.00;;;13.93;;
13122;SDS011;6627;50.920;12.050;2023-05-23T06:24:11;15.80;;;13.47;;
13122;SDS011;6627;50.920;12.050;2023-05-23T06:26:38;16.60;;;14.70;;
13122;SDS011;6627;50.920;12.050;2023-05-23T06:29:06;16.23;;;14.60;;
13122;SDS011;6627;50.920;12.050;2023-05-23T06:31:33;17.77;;;14.97;;
13122;SDS011;6627;50.920;12.050;2023-05-23T06:34:01;17.53;;;15.70;;
13122;SDS011;6627;50.920;12.050;2023-05-23T06:36:29;19.23;;;16.17;;
13122;SDS011;6627;50.920;12.050;2023-05-23T06:38:56;18.90;;;15.40;;
13122;SDS011;6627;50.920;12.050;2023-05-23T06:41:23;16.97;;;15.27;;
13122;SDS011;6627;50.920;12.050;2023-05-23T06:43:52;17.57;;;15.80;;
13122;SDS011;6627;50.920;12.050;2023-05-23T06:46:19;22.43;;;16.23;;
13122;SDS011;6627;50.920;12.050;2023-05-23T06:48:46;19.23;;;17.23;;
13122;SDS011;6627;50.920;12.050;2023-05-23T06:51:15;20.87;;;17.03;;
13122;SDS011;6627;50.920;12.050;2023-05-23T06:53:42;19.33;;;17.30;;
13122;SDS011;6627;50.920;12.050;2023-05-23T06:56:10;18.03;;;16.23;;
13122;SDS011;6627;50.920;12.050;2023-05-23T06:58:37;17.83;;;16.20;;
13122;SDS011;6627;50.920;12.050;2023-05-23T07:01:04;17.63;;;15.83;;
13122;SDS011;6627;50.920;12.050;2023-05-23T07:03:31;18.77;;;16.47;;
13122;SDS011;6627;50.920;12.050;2023-05-23T07:05:58;20.07;;;16.33;;
13122;SDS011;6627;50.920;12.050;2023-05-23T07:08:28;18.73;;;14.50;;
13122;SDS011;6627;50.920;12.050;2023-05-23T07:10:55;19.87;;;14.33;;
13122;SDS011;6627;50.920;12.050;2023-05-23T07:13:22;15.87;;;13.57;;
13122;SDS011;6627;50.920;12.050;2023-05-23T07:15:50;20.80;;;14.00;;
13122;SDS011;6627;50.920;12.050;2023-05-23T07:18:17;18.53;;;13.63;;
13122;SDS011;6627;50.920;12.050;2023-05-23T07:20:46;14.93;;;13.33;;
13122;SDS011;6627;50.920;12.050;2023-05-23T07:23:14;14.70;;;13.17;;
13122;SDS011;6627;50.920;12.050;2023-05-23T07:25:43;15.53;;;12.63;;
13122;SDS011;6627;50.920;12.050;2023-05-23T07:28:11;16.00;;;13.00;;
13122;SDS011;6627;50.920;12.050;2023-05-23T07:30:38;15.43;;;12.47;;
13122;SDS011;6627;50.920;12.050;2023-05-23T07:33:07;13.93;;;12.43;;
13122;SDS011;6627;50.920;12.050;2023-05-23T07:35:34;13.97;;;11.63;;
13122;SDS011;6627;50.920;12.050;2023-05-23T07:38:01;12.47;;;10.93;;
13122;SDS011;6627;50.920;12.050;2023-05-23T07:40:29;13.67;;;11.43;;
13122;SDS011;6627;50.920;12.050;2023-05-23T07:42:57;13.97;;;11.40;;
13122;SDS011;6627;50.920;12.050;2023-05-23T07:45:25;13.23;;;11.07;;
13122;SDS011;6627;50.920;12.050;2023-05-23T07:47:52;10.87;;;9.77;;
13122;SDS011;6627;50.920;12.050;2023-05-23T07:50:19;13.63;;;10.37;;
13122;SDS011;6627;50.920;12.050;2023-05-23T07:52:47;13.97;;;10.10;;
13122;SDS011;6627;50.920;12.050;2023-05-23T07:55:15;11.73;;;10.37;;
13122;SDS011;6627;50.920;12.050;2023-05-23T07:57:43;13.57;;;10.50;;
13122;SDS011;6627;50.920;12.050;2023-05-23T08:00:12;11.63;;;9.90;;
13122;SDS011;6627;50.920;12.050;2023-05-23T08:02:40;10.37;;;9.23;;
13122;SDS011;6627;50.920;12.050;2023-05-23T08:05:08;9.93;;;8.73;;
13122;SDS011;6627;50.920;12.050;2023-05-23T08:07:36;11.07;;;9.87;;
13122;SDS011;6627;50.920;12.050;2023-05-23T08:10:03;14.93;;;9.53;;
13122;SDS011;6627;50.920;12.050;2023-05-23T08:12:32;13.17;;;8.77;;
13122;SDS011;6627;50.920;12.050;2023-05-23T08:14:59;11.77;;;8.83;;
13122;SDS011;6627;50.920;12.050;2023-05-23T08:17:27;9.90;;;8.90;;
13122;SDS011;6627;50.920;12.050;2023-05-23T08:19:55;10.20;;;9.03;;
13122;SDS011;6627;50.920;12.050;2023-05-23T08:22:22;10.07;;;8.97;;
13122;SDS011;6627;50.920;12.050;2023-05-23T08:24:49;13.03;;;8.87;;
13122;SDS011;6627;50.920;12.050;2023-05-23T08:27:16;9.53;;;8.20;;
13122;SDS011;6627;50.920;12.050;2023-05-23T08:29:43;10.00;;;7.70;;
13122;SDS011;6627;50.920;12.050;2023-05-23T08:32:11;10.53;;;7.53;;
13122;SDS011;6627;50.920;12.050;2023-05-23T08:34:40;11.03;;;8.47;;
13122;SDS011;6627;50.920;12.050;2023-05-23T08:37:07;9.10;;;6.77;;
13122;SDS011;6627;50.920;12.050;2023-05-23T08:39:34;8.10;;;7.27;;
13122;SDS011;6627;50.920;12.050;2023-05-23T08:42:01;7.27;;;6.27;;
13122;SDS011;6627;50.920;12.050;2023-05-23T08:44:29;11.70;;;7.23;;
13122;SDS011;6627;50.920;12.050;2023-05-23T08:46:57;10.27;;;5.90;;
13122;SDS011;6627;50.920;12.050;2023-05-23T08:49:30;18.80;;;7.13;;
13122;SDS011;6627;50.920;12.050;2023-05-23T08:52:00;7.17;;;5.10;;
13122;SDS011;6627;50.920;12.050;2023-05-23T08:54:29;6.83;;;4.23;;
13122;SDS011;6627;50.920;12.050;2023-05-23T08:56:57;3.93;;;3.63;;
13122;SDS011;6627;50.920;12.050;2023-05-23T08:59:25;4.73;;;4.27;;
13122;SDS011;6627;50.920;12.050;2023-05-23T09:01:54;5.13;;;4.23;;
13122;SDS011;6627;50.920;12.050;2023-05-23T09:04:22;4.40;;;4.00;;
13122;SDS011;6627;50.920;12.050;2023-05-23T09:06:49;4.43;;;3.80;;
13122;SDS011;6627;50.920;12.050;2023-05-23T09:09:18;3.70;;;3.40;;
13122;SDS011;6627;50.920;12.050;2023-05-23T09:11:45;4.20;;;3.63;;
13122;SDS011;6627;50.920;12.050;2023-05-23T09:14:22;4.93;;;3.73;;
13122;SDS011;6627;50.920;12.050;2023-05-23T09:16:50;3.80;;;3.50;;
13122;SDS011;6627;50.920;12.050;2023-05-23T09:19:17;3.60;;;3.30;;
13122;SDS011;6627;50.920;12.050;2023-05-23T09:21:45;3.80;;;2.90;;
13122;SDS011;6627;50.920;12.050;2023-05-23T09:24:12;3.43;;;2.97;;
13122;SDS011;6627;50.920;12.050;2023-05-23T09:26:41;3.33;;;3.03;;
13122;SDS011;6627;50.920;12.050;2023-05-23T09:29:12;3.20;;;2.90;;
13122;SDS011;6627;50.920;12.050;2023-05-23T09:31:44;2.50;;;2.30;;
13122;SDS011;6627;50.920;12.050;2023-05-23T09:34:12;4.80;;;2.80;;
13122;SDS011;6627;50.920;12.050;2023-05-23T09:36:39;2.80;;;2.60;;
13122;SDS011;6627;50.920;12.050;2023-05-23T09:39:09;2.93;;;2.60;;
13122;SDS011;6627;50.920;12.050;2023-05-23T09:41:37;4.60;;;2.70;;
13122;SDS011;6627;50.920;12.050;2023-05-23T09:44:06;3.30;;;3.00;;
13122;SDS011;6627;50.920;12.050;2023-05-23T09:46:35;3.37;;;3.00;;
13122;SDS011;6627;50.920;12.050;2023-05-23T09:49:13;3.30;;;3.00;;
13122;SDS011;6627;50.920;12.050;2023-05-23T09:51:43;4.13;;;2.83;;
13122;SDS011;6627;50.920;12.050;2023-05-23T09:54:22;4.43;;;2.90;;
13122;SDS011;6627;50.920;12.050;2023-05-23T09:56:50;4.33;;;2.93;;
13122;SDS011;6627;50.920;12.050;2023-05-23T09:59:22;3.40;;;3.10;;
13122;SDS011;6627;50.920;12.050;2023-05-23T10:01:56;3.50;;;3.20;;
13122;SDS011;6627;50.920;12.050;2023-05-23T10:04:29;3.07;;;2.77;;
13122;SDS011;6627;50.920;12.050;2023-05-23T10:07:00;3.43;;;3.13;;
13122;SDS011;6627;50.920;12.050;2023-05-23T10:09:35;4.23;;;2.83;;
13122;SDS011;6627;50.920;12.050;2023-05-23T10:12:21;5.07;;;3.33;;
13122;SDS011;6627;50.920;12.050;2023-05-23T10:15:12;4.33;;;3.20;;
13122;SDS011;6627;50.920;12.050;2023-05-23T10:17:48;3.30;;;3.00;;
13122;SDS011;6627;50.920;12.050;2023-05-23T10:20:27;3.53;;;3.23;;
13122;SDS011;6627;50.920;12.050;2023-05-23T10:22:58;3.70;;;2.40;;
13122;SDS011;6627;50.920;12.050;2023-05-23T10:25:27;4.53;;;2.40;;
13122;SDS011;6627;50.920;12.050;2023-05-23T10:27:55;4.13;;;3.17;;
13122;SDS011;6627;50.920;12.050;2023-05-23T10:30:26;2.73;;;2.47;;
13122;SDS011;6627;50.920;12.050;2023-05-23T10:32:54;2.87;;;2.67;;
13122;SDS011;6627;50.920;12.050;2023-05-23T10:35:24;3.83;;;3.10;;
13122;SDS011;6627;50.920;12.050;2023-05-23T10:38:08;2.87;;;2.53;;
13122;SDS011;6627;50.920;12.050;2023-05-23T10:40:52;4.43;;;2.60;;
13122;SDS011;6627;50.920;12.050;2023-05-23T10:43:33;3.33;;;2.90;;
13122;SDS011;6627;50.920;12.050;2023-05-23T10:46:12;3.20;;;2.90;;
13122;SDS011;6627;50.920;12.050;2023-05-23T10:48:40;2.90;;;2.70;;
13122;SDS011;6627;50.920;12.050;2023-05-23T10:51:10;2.93;;;2.63;;
13122;SDS011;6627;50.920;12.050;2023-05-23T10:53:40;3.00;;;2.70;;
13122;SDS011;6627;50.920;12.050;2023-05-23T10:56:10;2.87;;;2.67;;
13122;SDS011;6627;50.920;12.050;2023-05-23T10:58:50;3.10;;;2.33;;
13122;SDS011;6627;50.920;12.050;2023-05-23T11:01:20;4.20;;;2.30;;
13122;SDS011;6627;50.920;12.050;2023-05-23T11:03:48;3.40;;;2.83;;
13122;SDS011;6627;50.920;12.050;2023-05-23T11:06:28;2.70;;;2.50;;
13122;SDS011;6627;50.920;12.050;2023-05-23T11:09:03;4.73;;;2.80;;
13122;SDS011;6627;50.920;12.050;2023-05-23T11:14:19;3.43;;;2.30;;
13122;SDS011;6627;50.920;12.050;2023-05-23T11:16:59;3.20;;;2.37;;
13122;SDS011;6627;50.920;12.050;2023-05-23T11:19:54;2.90;;;2.47;;
13122;SDS011;6627;50.920;12.050;2023-05-23T11:22:26;3.10;;;2.80;;
13122;SDS011;6627;50.920;12.050;2023-05-23T11:24:55;2.63;;;2.43;;
13122;SDS011;6627;50.920;12.050;2023-05-23T11:27:27;2.57;;;2.37;;
13122;SDS011;6627;50.920;12.050;2023-05-23T11:29:57;4.60;;;2.93;;
13122;SDS011;6627;50.920;12.050;2023-05-23T11:32:29;4.23;;;2.60;;
13122;SDS011;6627;50.920;12.050;2023-05-23T11:35:00;3.23;;;2.70;;
13122;SDS011;6627;50.920;12.050;2023-05-23T11:37:29;3.50;;;2.40;;
13122;SDS011;6627;50.920;12.050;2023-05-23T11:39:57;4.33;;;2.70;;
13122;SDS011;6627;50.920;12.050;2023-05-23T11:42:26;3.37;;;2.80;;
13122;SDS011;6627;50.920;12.050;2023-05-23T11:44:53;3.00;;;2.70;;
13122;SDS011;6627;50.920;12.050;2023-05-23T11:47:20;2.93;;;2.50;;
13122;SDS011;6627;50.920;12.050;2023-05-23T11:49:49;3.13;;;2.30;;
13122;SDS011;6627;50.920;12.050;2023-05-23T11:52:16;2.97;;;2.43;;
13122;SDS011;6627;50.920;12.050;2023-05-23T11:54:43;2.87;;;2.60;;
13122;SDS011;6627;50.920;12.050;2023-05-23T11:57:11;3.23;;;2.93;;
13122;SDS011;6627;50.920;12.050;2023-05-23T11:59:39;2.50;;;2.30;;
13122;SDS011;6627;50.920;12.050;2023-05-23T12:02:06;4.13;;;2.60;;
13122;SDS011;6627;50.920;12.050;2023-05-23T12:04:34;2.60;;;2.40;;
13122;SDS011;6627;50.920;12.050;2023-05-23T12:07:04;4.40;;;2.63;;
13122;SDS011;6627;50.920;12.050;2023-05-23T12:09:40;3.20;;;2.70;;
13122;SDS011;6627;50.920;12.050;2023-05-23T12:12:08;2.70;;;2.50;;
13122;SDS011;6627;50.920;12.050;2023-05-23T12:14:36;2.93;;;2.73;;
13122;SDS011;6627;50.920;12.050;2023-05-23T12:17:09;2.90;;;2.60;;
13122;SDS011;6627;50.920;12.050;2023-05-23T12:19:38;2.80;;;2.60;;
13122;SDS011;6627;50.920;12.050;2023-05-23T12:22:07;3.63;;;2.80;;
13122;SDS011;6627;50.920;12.050;2023-05-23T12:24:34;2.77;;;2.20;;
13122;SDS011;6627;50.920;12.050;2023-05-23T12:27:01;5.90;;;2.43;;
13122;SDS011;6627;50.920;12.050;2023-05-23T12:29:29;2.97;;;2.67;;
13122;SDS011;6627;50.920;12.050;2023-05-23T12:31:59;2.90;;;2.60;;
13122;SDS011;6627;50.920;12.050;2023-05-23T12:34:28;2.90;;;2.60;;
13122;SDS011;6627;50.920;12.050;2023-05-23T12:36:56;3.30;;;2.53;;
13122;SDS011;6627;50.920;12.050;2023-05-23T12:39:27;3.10;;;2.80;;
13122;SDS011;6627;50.920;12.050;2023-05-23T12:42:05;2.90;;;2.70;;
13122;SDS011;6627;50.920;12.050;2023-05-23T12:44:34;2.90;;;2.70;;
13122;SDS011;6627;50.920;12.050;2023-05-23T12:47:02;2.93;;;2.73;;
13122;SDS011;6627;50.920;12.050;2023-05-23T12:49:31;4.23;;;2.60;;
13122;SDS011;6627;50.920;12.050;2023-05-23T12:51:58;3.33;;;2.60;;
13122;SDS011;6627;50.920;12.050;2023-05-23T12:54:25;3.00;;;2.67;;
13122;SDS011;6627;50.920;12.050;2023-05-23T12:56:54;3.20;;;2.43;;
13122;SDS011;6627;50.920;12.050;2023-05-23T12:59:21;2.53;;;2.30;;
13122;SDS011;6627;50.920;12.050;2023-05-23T13:01:48;4.67;;;2.30;;
13122;SDS011;6627;50.920;12.050;2023-05-23T13:04:16;2.50;;;2.30;;
13122;SDS011;6627;50.920;12.050;2023-05-23T13:06:43;4.30;;;2.50;;
13122;SDS011;6627;50.920;12.050;2023-05-23T13:09:11;2.43;;;2.20;;
13122;SDS011;6627;50.920;12.050;2023-05-23T13:11:39;3.33;;;2.30;;
13122;SDS011;6627;50.920;12.050;2023-05-23T13:14:07;3.67;;;2.10;;
13122;SDS011;6627;50.920;12.050;2023-05-23T13:16:34;3.60;;;2.40;;
13122;SDS011;6627;50.920;12.050;2023-05-23T13:19:03;4.43;;;1.90;;
13122;SDS011;6627;50.920;12.050;2023-05-23T13:21:30;1.67;;;1.57;;
13122;SDS011;6627;50.920;12.050;2023-05-23T13:23:58;1.57;;;1.47;;
13122;SDS011;6627;50.920;12.050;2023-05-23T13:26:25;5.73;;;1.70;;
13122;SDS011;6627;50.920;12.050;2023-05-23T13:28:55;2.90;;;1.60;;
13122;SDS011;6627;50.920;12.050;2023-05-23T13:31:22;3.33;;;1.60;;
13122;SDS011;6627;50.920;12.050;2023-05-23T13:33:49;3.20;;;2.10;;
13122;SDS011;6627;50.920;12.050;2023-05-23T13:36:17;2.10;;;1.90;;
13122;SDS011;6627;50.920;12.050;2023-05-23T13:38:44;2.83;;;2.33;;
13122;SDS011;6627;50.920;12.050;2023-05-23T13:41:11;3.13;;;2.70;;
13122;SDS011;6627;50.920;12.050;2023-05-23T13:43:38;2.40;;;2.20;;
13122;SDS011;6627;50.920;12.050;2023-05-23T13:46:07;2.77;;;2.57;;
13122;SDS011;6627;50.920;12.050;2023-05-23T13:48:34;3.57;;;2.80;;
13122;SDS011;6627;50.920;12.050;2023-05-23T13:51:01;3.40;;;3.10;;
13122;SDS011;6627;50.920;12.050;2023-05-23T13:53:29;6.73;;;2.80;;
13122;SDS011;6627;50.920;12.050;2023-05-23T13:55:57;4.03;;;2.83;;
13122;SDS011;6627;50.920;12.050;2023-05-23T13:58:24;3.60;;;2.77;;
13122;SDS011;6627;50.920;12.050;2023-05-23T14:00:52;3.30;;;3.00;;
13122;SDS011;6627;50.920;12.050;2023-05-23T14:03:20;3.33;;;3.03;;
13122;SDS011;6627;50.920;12.050;2023-05-23T14:05:48;2.77;;;2.57;;
13122;SDS011;6627;50.920;12.050;2023-05-23T14:08:15;2.70;;;2.50;;
13122;SDS011;6627;50.920;12.050;2023-05-23T14:10:43;2.70;;;2.27;;
13122;SDS011;6627;50.920;12.050;2023-05-23T14:13:10;2.60;;;2.40;;
13122;SDS011;6627;50.920;12.050;2023-05-23T14:15:37;2.90;;;2.60;;
13122;SDS011;6627;50.920;12.050;2023-05-23T14:18:06;3.27;;;2.10;;
13122;SDS011;6627;50.920;12.050;2023-05-23T14:20:35;2.10;;;1.90;;
13122;SDS011;6627;50.920;12.050;2023-05-23T14:23:02;2.77;;;2.20;;
13122;SDS011;6627;50.920;12.050;2023-05-23T14:25:29;2.23;;;2.03;;
13122;SDS011;6627;50.920;12.050;2023-05-23T14:27:56;2.40;;;2.20;;
13122;SDS011;6627;50.920;12.050;2023-05-23T14:30:23;2.67;;;2.40;;
13122;SDS011;6627;50.920;12.050;2023-05-23T14:32:51;2.63;;;2.33;;
13122;SDS011;6627;50.920;12.050;2023-05-23T14:35:18;3.07;;;2.60;;
13122;SDS011;6627;50.920;12.050;2023-05-23T14:37:48;6.67;;;2.70;;
13122;SDS011;6627;50.920;12.050;2023-05-23T14:40:15;3.77;;;2.70;;
13122;SDS011;6627;50.920;12.050;2023-05-23T14:42:42;3.10;;;2.80;;
13122;SDS011;6627;50.920;12.050;2023-05-23T14:45:10;3.83;;;2.80;;